createdAt,value
2017-02-27T00:01:03.797Z,10.33
2017-02-27T00:02:15.283Z,10.26
2017-02-27T00:03:26.798Z,10.29
2017-02-27T00:04:38.284Z,10.32
2017-02-27T00:05:49.781Z,10.29
2017-02-27T00:07:01.266Z,10.29
2017-02-27T00:08:12.855Z,10.33
2017-02-27T00:09:24.343Z,10.28
2017-02-27T00:10:35.851Z,10.26
2017-02-27T00:11:47.344Z,10.28
2017-02-27T00:12:58.866Z,10.21
2017-02-27T00:14:10.375Z,10.25
2017-02-27T00:15:21.892Z,10.17
2017-02-27T00:16:33.405Z,10.25
2017-02-27T00:17:44.960Z,10.15
2017-02-27T00:18:56.654Z,10.28
2017-02-27T00:20:08.182Z,10.31
2017-02-27T00:21:19.716Z,10.31
2017-02-27T00:22:31.219Z,10.33
2017-02-27T00:23:42.947Z,10.35
2017-02-27T00:24:54.659Z,10.33
2017-02-27T00:26:06.202Z,10.33
2017-02-27T00:27:17.740Z,10.28
2017-02-27T00:28:29.305Z,10.32
2017-02-27T00:29:41.008Z,10.26
2017-02-27T00:30:52.508Z,10.26
2017-02-27T00:32:04.004Z,10.2
2017-02-27T00:33:15.498Z,10.28
2017-02-27T00:34:27.182Z,10.26
2017-02-27T00:35:38.662Z,10.2
2017-02-27T00:36:50.346Z,10.25
2017-02-27T00:38:01.855Z,10.23
2017-02-27T00:39:13.412Z,10.29
2017-02-27T00:40:24.899Z,10.32
2017-02-27T00:41:36.608Z,10.36
2017-02-27T00:42:48.106Z,10.28
2017-02-27T00:43:59.608Z,10.23
2017-02-27T00:45:11.153Z,10.28
2017-02-27T00:46:22.854Z,10.32
2017-02-27T00:47:34.379Z,10.35
2017-02-27T00:48:45.876Z,10.35
2017-02-27T00:49:57.376Z,10.29
2017-02-27T00:51:08.930Z,10.23
2017-02-27T00:52:20.452Z,10.31
2017-02-27T00:53:31.951Z,10.23
2017-02-27T00:54:43.475Z,10.26
2017-02-27T00:55:54.977Z,10.29
2017-02-27T00:57:06.463Z,10.29
2017-02-27T00:58:17.977Z,10.31
2017-02-27T00:59:29.501Z,10.23
2017-02-27T01:00:41.066Z,10.25
2017-02-27T01:01:52.582Z,10.25
2017-02-27T01:03:04.325Z,10.29
2017-02-27T01:04:15.832Z,10.25
2017-02-27T01:05:27.323Z,10.18
2017-02-27T01:06:38.823Z,10.26
2017-02-27T01:07:50.321Z,10.25
2017-02-27T01:09:01.816Z,10.23
2017-02-27T01:10:13.325Z,10.31
2017-02-27T01:11:24.891Z,10.26
2017-02-27T01:12:36.433Z,10.26
2017-02-27T01:13:47.949Z,10.21
2017-02-27T01:14:59.443Z,10.21
2017-02-27T01:16:10.943Z,10.21
2017-02-27T01:17:22.462Z,10.21
2017-02-27T01:18:34.170Z,10.25
2017-02-27T01:19:45.681Z,10.23
2017-02-27T01:20:57.179Z,10.28
2017-02-27T01:22:08.916Z,10.26
2017-02-27T01:23:20.428Z,10.14
2017-02-27T01:24:31.942Z,10.21
2017-02-27T01:25:43.453Z,10.21
2017-02-27T01:26:54.944Z,10.25
2017-02-27T01:28:06.461Z,10.29
2017-02-27T01:29:18.363Z,10.28
2017-02-27T01:30:30.269Z,10.25
2017-02-27T01:31:41.754Z,10.21
2017-02-27T01:32:53.291Z,10.31
2017-02-27T01:34:04.785Z,10.35
2017-02-27T01:38:18.282Z,10.31
2017-02-27T01:46:38.653Z,10.23
2017-02-27T01:52:39.166Z,10.13
2017-02-27T01:53:53.287Z,10.23
2017-02-27T01:55:05.223Z,10.23
2017-02-27T01:56:16.716Z,10.21
2017-02-27T01:57:28.212Z,10.26
2017-02-27T01:58:39.721Z,10.28
2017-02-27T01:59:51.209Z,10.25
2017-02-27T02:01:02.747Z,10.29
2017-02-27T02:02:14.272Z,10.32
2017-02-27T02:03:25.973Z,10.33
2017-02-27T02:04:37.688Z,10.26
2017-02-27T02:05:49.187Z,10.21
2017-02-27T02:07:00.899Z,10.23
2017-02-27T02:08:12.385Z,10.33
2017-02-27T02:09:23.915Z,10.35
2017-02-27T02:10:35.453Z,10.35
2017-02-27T02:11:46.949Z,10.26
2017-02-27T02:12:58.665Z,10.28
2017-02-27T02:14:10.402Z,10.31
2017-02-27T02:15:22.141Z,10.32
2017-02-27T02:16:33.839Z,10.31
2017-02-27T02:17:45.393Z,10.41
2017-02-27T02:18:57.076Z,10.33
2017-02-27T02:20:08.585Z,10.35
2017-02-27T02:21:20.139Z,10.33
2017-02-27T02:22:31.655Z,10.39
2017-02-27T02:23:43.351Z,10.42
2017-02-27T02:24:54.845Z,10.41
2017-02-27T02:26:06.330Z,10.39
2017-02-27T02:27:17.905Z,10.44
2017-02-27T02:28:29.380Z,10.38
2017-02-27T02:29:40.886Z,10.41
2017-02-27T02:30:52.386Z,10.41
2017-02-27T02:32:04.172Z,10.39
2017-02-27T02:33:15.646Z,10.38
2017-02-27T02:34:27.147Z,10.35
2017-02-27T02:35:38.654Z,10.41
2017-02-27T02:36:50.144Z,10.39
2017-02-27T02:38:01.640Z,10.44
2017-02-27T02:39:13.152Z,10.35
2017-02-27T02:40:24.661Z,10.39
2017-02-27T02:41:36.196Z,10.38
2017-02-27T02:42:47.885Z,10.42
2017-02-27T02:43:59.380Z,10.33
2017-02-27T02:45:10.890Z,10.38
2017-02-27T02:46:22.399Z,10.31
2017-02-27T02:47:33.898Z,10.36
2017-02-27T02:48:45.465Z,10.35
2017-02-27T02:49:56.972Z,10.31
2017-02-27T02:51:08.489Z,10.28
2017-02-27T02:52:19.982Z,10.32
2017-02-27T02:53:31.694Z,10.36
2017-02-27T02:54:43.177Z,10.33
2017-02-27T02:55:54.658Z,10.32
2017-02-27T02:57:06.150Z,10.33
2017-02-27T02:58:17.674Z,10.42
2017-02-27T02:59:29.224Z,10.39
2017-02-27T03:00:40.735Z,10.39
2017-02-27T03:01:52.437Z,10.39
2017-02-27T03:03:03.944Z,10.44
2017-02-27T03:04:15.465Z,10.38
2017-02-27T03:05:26.982Z,10.42
2017-02-27T03:06:38.468Z,10.38
2017-02-27T03:07:50.175Z,10.42
2017-02-27T03:09:01.696Z,10.38
2017-02-27T03:10:13.493Z,10.51
2017-02-27T03:11:25.210Z,10.46
2017-02-27T03:12:36.884Z,10.49
2017-02-27T03:13:48.374Z,10.42
2017-02-27T03:14:59.865Z,10.38
2017-02-27T03:16:11.415Z,10.41
2017-02-27T03:17:22.918Z,10.41
2017-02-27T03:18:34.606Z,10.41
2017-02-27T03:19:46.152Z,10.42
2017-02-27T03:20:57.672Z,10.39
2017-02-27T03:22:09.193Z,10.44
2017-02-27T03:23:20.883Z,10.38
2017-02-27T03:24:32.370Z,10.38
2017-02-27T03:25:43.877Z,10.41
2017-02-27T03:26:55.399Z,10.46
2017-02-27T03:28:06.915Z,10.42
2017-02-27T03:29:18.394Z,10.49
2017-02-27T03:30:29.896Z,10.41
2017-02-27T03:31:41.459Z,10.39
2017-02-27T03:32:52.970Z,10.41
2017-02-27T03:34:04.487Z,10.42
2017-02-27T03:35:15.984Z,10.44
2017-02-27T03:36:27.497Z,10.44
2017-02-27T03:37:39.011Z,10.39
2017-02-27T03:38:50.503Z,10.42
2017-02-27T03:40:02.009Z,10.41
2017-02-27T03:41:13.484Z,10.41
2017-02-27T03:42:25.235Z,10.36
2017-02-27T03:43:37.141Z,10.42
2017-02-27T03:44:48.627Z,10.39
2017-02-27T03:46:00.130Z,10.35
2017-02-27T03:47:12.031Z,10.38
2017-02-27T03:48:23.517Z,10.35
2017-02-27T03:49:35.024Z,10.44
2017-02-27T03:50:46.516Z,10.38
2017-02-27T03:51:58.027Z,10.39
2017-02-27T03:53:09.593Z,10.39
2017-02-27T03:54:21.074Z,10.32
2017-02-27T03:55:32.583Z,10.33
2017-02-27T03:56:44.086Z,10.36
2017-02-27T03:57:55.604Z,10.41
2017-02-27T03:59:07.318Z,10.33
2017-02-27T04:00:18.808Z,10.44
2017-02-27T04:01:30.335Z,10.36
2017-02-27T04:02:41.829Z,10.41
2017-02-27T04:03:53.407Z,10.33
2017-02-27T04:05:04.926Z,10.42
2017-02-27T04:06:16.656Z,10.46
2017-02-27T04:07:28.354Z,10.42
2017-02-27T04:08:39.900Z,10.35
2017-02-27T04:09:51.598Z,10.39
2017-02-27T04:11:03.103Z,10.44
2017-02-27T04:12:14.610Z,10.39
2017-02-27T04:13:26.115Z,10.39
2017-02-27T04:14:37.627Z,10.41
2017-02-27T04:15:49.209Z,10.41
2017-02-27T04:17:00.716Z,10.52
2017-02-27T04:18:12.231Z,10.42
2017-02-27T04:19:23.737Z,10.42
2017-02-27T04:20:35.446Z,10.51
2017-02-27T04:21:46.956Z,10.41
2017-02-27T04:22:58.457Z,10.44
2017-02-27T04:24:10.200Z,10.41
2017-02-27T04:25:21.766Z,10.47
2017-02-27T04:26:33.251Z,10.51
2017-02-27T04:27:44.759Z,10.44
2017-02-27T04:28:56.261Z,10.38
2017-02-27T04:30:07.767Z,10.41
2017-02-27T04:31:19.247Z,10.41
2017-02-27T04:32:30.751Z,10.44
2017-02-27T04:33:42.264Z,10.49
2017-02-27T04:34:53.761Z,10.49
2017-02-27T04:36:05.299Z,10.38
2017-02-27T04:37:16.981Z,10.38
2017-02-27T04:38:28.473Z,10.52
2017-02-27T04:39:39.967Z,10.39
2017-02-27T04:40:51.458Z,10.41
2017-02-27T04:42:02.985Z,10.42
2017-02-27T04:43:14.508Z,10.41
2017-02-27T04:44:26.000Z,10.44
2017-02-27T04:45:37.506Z,10.46
2017-02-27T04:46:49.059Z,10.41
2017-02-27T04:48:00.569Z,10.49
2017-02-27T04:49:12.080Z,10.42
2017-02-27T04:50:23.583Z,10.47
2017-02-27T04:51:35.296Z,10.47
2017-02-27T04:52:47.024Z,10.52
2017-02-27T04:53:58.531Z,10.54
2017-02-27T04:55:10.065Z,10.44
2017-02-27T04:56:21.546Z,10.44
2017-02-27T04:57:33.233Z,10.49
2017-02-27T04:58:44.786Z,10.39
2017-02-27T04:59:56.267Z,10.51
2017-02-27T05:01:07.749Z,10.42
2017-02-27T05:02:19.291Z,10.46
2017-02-27T05:03:30.826Z,10.44
2017-02-27T05:04:42.344Z,10.42
2017-02-27T05:05:53.839Z,10.42
2017-02-27T05:07:05.361Z,10.41
2017-02-27T05:08:16.914Z,10.46
2017-02-27T05:09:28.405Z,10.47
2017-02-27T05:10:39.898Z,10.49
2017-02-27T05:11:51.609Z,10.49
2017-02-27T05:13:03.524Z,10.44
2017-02-27T05:14:15.034Z,10.49
2017-02-27T05:15:26.546Z,10.41
2017-02-27T05:16:38.052Z,10.58
2017-02-27T05:17:49.748Z,10.49
2017-02-27T05:19:01.301Z,10.55
2017-02-27T05:20:12.809Z,10.51
2017-02-27T05:21:24.323Z,10.51
2017-02-27T05:22:35.840Z,10.51
2017-02-27T05:23:47.325Z,10.51
2017-02-27T05:24:58.835Z,10.51
2017-02-27T05:26:10.348Z,10.47
2017-02-27T05:27:21.836Z,10.46
2017-02-27T05:28:33.326Z,10.44
2017-02-27T05:29:44.876Z,10.42
2017-02-27T05:30:56.378Z,10.44
2017-02-27T05:32:07.883Z,10.47
2017-02-27T05:33:19.373Z,10.38
2017-02-27T05:34:30.897Z,10.36
2017-02-27T05:35:42.404Z,10.36
2017-02-27T05:36:54.112Z,10.44
2017-02-27T05:38:05.604Z,10.44
2017-02-27T05:39:17.105Z,10.44
2017-02-27T05:40:28.615Z,10.38
2017-02-27T05:41:40.155Z,10.38
2017-02-27T05:42:51.866Z,10.36
2017-02-27T05:44:03.369Z,10.38
2017-02-27T05:45:15.083Z,10.39
2017-02-27T05:46:26.603Z,10.42
2017-02-27T05:47:38.112Z,10.35
2017-02-27T05:48:49.828Z,10.29
2017-02-27T05:50:01.326Z,10.28
2017-02-27T05:51:12.893Z,10.33
2017-02-27T05:52:24.400Z,10.26
2017-02-27T05:53:35.907Z,10.35
2017-02-27T05:54:47.403Z,10.29
2017-02-27T05:55:58.881Z,10.36
2017-02-27T05:57:10.366Z,10.32
2017-02-27T05:58:21.880Z,10.29
2017-02-27T05:59:33.408Z,10.28
2017-02-27T06:00:44.919Z,10.31
2017-02-27T06:01:56.667Z,10.35
2017-02-27T06:03:08.380Z,10.26
2017-02-27T06:04:19.893Z,10.35
2017-02-27T06:05:31.608Z,10.28
2017-02-27T06:06:43.116Z,10.33
2017-02-27T06:07:54.837Z,10.28
2017-02-27T06:09:06.512Z,10.29
2017-02-27T06:10:18.221Z,10.28
2017-02-27T06:11:29.922Z,10.25
2017-02-27T06:12:41.671Z,10.26
2017-02-27T06:13:53.365Z,10.26
2017-02-27T06:15:04.878Z,10.25
2017-02-27T06:16:16.380Z,10.25
2017-02-27T06:17:27.877Z,10.33
2017-02-27T06:18:39.768Z,10.31
2017-02-27T06:19:51.273Z,10.26
2017-02-27T06:21:02.771Z,10.21
2017-02-27T06:22:14.466Z,10.33
2017-02-27T06:23:25.977Z,10.21
2017-02-27T06:24:37.527Z,10.32
2017-02-27T06:25:49.259Z,10.32
2017-02-27T06:27:00.770Z,10.33
2017-02-27T06:28:12.256Z,10.32
2017-02-27T06:29:23.788Z,10.29
2017-02-27T06:30:35.505Z,10.33
2017-02-27T06:31:47.221Z,10.31
2017-02-27T06:32:58.737Z,10.32
2017-02-27T06:34:10.289Z,10.35
2017-02-27T06:35:21.791Z,10.29
2017-02-27T06:36:33.275Z,10.28
2017-02-27T06:37:44.771Z,10.28
2017-02-27T06:38:56.461Z,10.32
2017-02-27T06:40:08.009Z,10.32
2017-02-27T06:41:19.722Z,10.35
2017-02-27T06:42:31.238Z,10.31
2017-02-27T06:43:42.736Z,10.35
2017-02-27T06:44:54.267Z,10.35
2017-02-27T06:46:06.150Z,10.35
2017-02-27T06:47:17.662Z,10.31
2017-02-27T06:48:29.179Z,10.28
2017-02-27T06:49:40.681Z,10.29
2017-02-27T06:50:52.392Z,10.32
2017-02-27T06:52:04.084Z,10.31
2017-02-27T06:53:15.788Z,10.33
2017-02-27T06:54:27.285Z,10.28
2017-02-27T06:55:38.784Z,10.32
2017-02-27T06:56:50.298Z,10.32
2017-02-27T06:58:01.792Z,10.29
2017-02-27T06:59:13.299Z,10.31
2017-02-27T07:00:24.818Z,10.33
2017-02-27T07:01:36.321Z,10.29
2017-02-27T07:02:47.805Z,10.32
2017-02-27T07:03:59.547Z,10.35
2017-02-27T07:05:11.048Z,10.33
2017-02-27T07:06:22.636Z,10.41
2017-02-27T07:07:34.138Z,10.44
2017-02-27T07:08:45.677Z,10.44
2017-02-27T07:09:57.189Z,10.39
2017-02-27T07:11:08.711Z,10.44
2017-02-27T07:12:20.435Z,10.41
2017-02-27T07:13:31.927Z,10.39
2017-02-27T07:14:43.421Z,10.42
2017-02-27T07:15:54.936Z,10.35
2017-02-27T07:17:06.492Z,10.41
2017-02-27T07:18:17.995Z,10.42
2017-02-27T07:19:29.521Z,10.52
2017-02-27T07:20:41.036Z,10.42
2017-02-27T07:21:52.542Z,10.42
2017-02-27T07:23:04.262Z,10.39
2017-02-27T07:24:15.781Z,10.49
2017-02-27T07:25:27.466Z,10.58
2017-02-27T07:26:39.168Z,10.59
2017-02-27T07:27:50.749Z,10.61
2017-02-27T07:29:02.453Z,10.54
2017-02-27T07:30:14.160Z,10.57
2017-02-27T07:31:25.645Z,10.52
2017-02-27T07:32:37.147Z,10.63
2017-02-27T07:33:48.683Z,10.61
2017-02-27T07:35:00.188Z,10.66
2017-02-27T07:36:11.887Z,10.61
2017-02-27T07:37:23.373Z,10.63
2017-02-27T07:38:34.891Z,10.7
2017-02-27T07:39:46.382Z,10.63
2017-02-27T07:40:58.085Z,10.65
2017-02-27T07:42:09.778Z,10.76
2017-02-27T07:43:21.299Z,10.76
2017-02-27T07:44:33.041Z,10.75
2017-02-27T07:45:44.552Z,10.79
2017-02-27T07:46:56.054Z,10.75
2017-02-27T07:48:07.560Z,10.76
2017-02-27T07:49:19.320Z,10.8
2017-02-27T07:50:30.837Z,10.83
2017-02-27T07:51:42.326Z,10.79
2017-02-27T07:52:53.826Z,10.79
2017-02-27T07:54:05.348Z,10.79
2017-02-27T07:55:16.854Z,10.85
2017-02-27T07:56:28.385Z,10.85
2017-02-27T07:57:39.882Z,10.83
2017-02-27T07:58:51.380Z,10.92
2017-02-27T08:00:02.927Z,10.91
2017-02-27T08:01:14.404Z,10.88
2017-02-27T08:02:25.896Z,10.9
2017-02-27T08:03:37.582Z,10.95
2017-02-27T08:04:49.079Z,11.03
2017-02-27T08:06:00.577Z,11.06
2017-02-27T08:07:12.062Z,11.06
2017-02-27T08:08:23.579Z,11.21
2017-02-27T08:09:35.297Z,11.2
2017-02-27T08:10:46.869Z,11.27
2017-02-27T08:11:58.362Z,11.31
2017-02-27T08:13:09.859Z,11.42
2017-02-27T08:14:21.382Z,11.49
2017-02-27T08:15:33.094Z,11.43
2017-02-27T08:16:44.592Z,11.42
2017-02-27T08:17:56.105Z,11.38
2017-02-27T08:19:07.589Z,11.46
2017-02-27T08:20:19.101Z,11.46
2017-02-27T08:21:30.619Z,11.59
2017-02-27T08:22:42.130Z,11.52
2017-02-27T08:23:53.651Z,11.57
2017-02-27T08:25:05.376Z,11.53
2017-02-27T08:26:16.864Z,11.52
2017-02-27T08:27:28.409Z,11.59
2017-02-27T08:28:40.092Z,11.57
2017-02-27T08:29:51.581Z,11.66
2017-02-27T08:31:03.096Z,11.64
2017-02-27T08:32:14.802Z,11.7
2017-02-27T08:33:26.375Z,11.79
2017-02-27T08:34:37.878Z,11.79
2017-02-27T08:35:49.402Z,11.86
2017-02-27T08:37:00.903Z,11.84
2017-02-27T08:38:12.455Z,11.82
2017-02-27T08:39:23.971Z,11.89
2017-02-27T08:40:35.670Z,11.85
2017-02-27T08:41:47.159Z,11.76
2017-02-27T08:42:58.652Z,11.79
2017-02-27T08:44:10.154Z,11.85
2017-02-27T08:45:21.840Z,11.91
2017-02-27T08:46:33.549Z,11.85
2017-02-27T08:47:45.053Z,11.85
2017-02-27T08:48:56.597Z,11.89
2017-02-27T08:50:08.109Z,11.89
2017-02-27T08:51:19.600Z,11.91
2017-02-27T08:52:31.129Z,11.89
2017-02-27T08:53:42.820Z,11.94
2017-02-27T08:54:54.323Z,11.91
2017-02-27T08:56:05.847Z,12.08
2017-02-27T08:57:17.343Z,12.04
2017-02-27T08:58:28.844Z,12.05
2017-02-27T08:59:40.556Z,12.15
2017-02-27T09:00:52.059Z,12.23
2017-02-27T09:02:03.568Z,12.29
2017-02-27T09:03:15.071Z,12.33
2017-02-27T09:04:26.779Z,12.31
2017-02-27T09:05:38.328Z,12.28
2017-02-27T09:06:49.849Z,12.22
2017-02-27T09:08:01.345Z,12.19
2017-02-27T09:09:12.852Z,12.25
2017-02-27T09:10:24.336Z,12.19
2017-02-27T09:11:35.861Z,12.26
2017-02-27T09:12:47.552Z,12.25
2017-02-27T09:13:59.081Z,12.2
2017-02-27T09:15:10.836Z,12.22
2017-02-27T09:16:22.346Z,12.22
2017-02-27T09:17:33.858Z,12.2
2017-02-27T09:18:45.348Z,12.19
2017-02-27T09:19:56.872Z,12.26
2017-02-27T09:21:08.662Z,12.22
2017-02-27T09:22:20.170Z,12.22
2017-02-27T09:23:31.887Z,12.2
2017-02-27T09:24:43.376Z,12.37
2017-02-27T09:25:54.926Z,12.43
2017-02-27T09:27:06.661Z,12.45
2017-02-27T09:28:18.166Z,12.65
2017-02-27T09:29:29.666Z,12.95
2017-02-27T09:30:41.385Z,13.03
2017-02-27T09:31:52.954Z,12.89
2017-02-27T09:33:04.865Z,12.88
2017-02-27T09:34:16.366Z,12.88
2017-02-27T09:35:27.891Z,12.98
2017-02-27T09:36:39.435Z,12.73
2017-02-27T09:37:51.148Z,12.69
2017-02-27T09:39:02.646Z,12.66
2017-02-27T09:40:14.179Z,12.71
2017-02-27T09:41:25.702Z,12.63
2017-02-27T09:42:37.198Z,12.53
2017-02-27T09:43:48.692Z,12.41
2017-02-27T09:45:00.214Z,12.56
2017-02-27T09:46:11.937Z,12.38
2017-02-27T09:47:23.506Z,12.34
2017-02-27T09:48:35.030Z,12.4
2017-02-27T09:49:46.523Z,12.38
2017-02-27T09:50:58.038Z,12.41
2017-02-27T09:52:09.554Z,12.38
2017-02-27T09:53:21.114Z,12.43
2017-02-27T09:54:32.634Z,12.4
2017-02-27T09:55:44.332Z,12.38
2017-02-27T09:56:55.840Z,12.31
2017-02-27T09:58:07.362Z,12.34
2017-02-27T09:59:18.863Z,12.26
2017-02-27T10:00:30.366Z,12.26
2017-02-27T10:01:42.089Z,12.33
2017-02-27T10:02:53.580Z,12.31
2017-02-27T10:04:05.126Z,12.38
2017-02-27T10:05:16.853Z,12.29
2017-02-27T10:06:28.551Z,12.37
2017-02-27T10:07:40.066Z,12.29
2017-02-27T10:08:51.574Z,12.33
2017-02-27T10:10:03.062Z,12.31
2017-02-27T10:11:14.790Z,12.38
2017-02-27T10:12:26.336Z,12.4
2017-02-27T10:13:38.033Z,12.43
2017-02-27T10:14:49.784Z,12.37
2017-02-27T10:16:01.300Z,12.45
2017-02-27T10:17:12.820Z,12.45
2017-02-27T10:18:24.324Z,12.61
2017-02-27T10:19:36.025Z,12.7
2017-02-27T10:20:47.508Z,12.69
2017-02-27T10:21:59.206Z,12.59
2017-02-27T10:23:10.702Z,12.7
2017-02-27T10:24:22.416Z,12.58
2017-02-27T10:25:34.181Z,12.56
2017-02-27T10:26:45.671Z,12.69
2017-02-27T10:27:57.167Z,12.55
2017-02-27T10:29:08.683Z,12.74
2017-02-27T10:30:20.193Z,12.56
2017-02-27T10:31:31.711Z,12.62
2017-02-27T10:32:43.426Z,12.77
2017-02-27T10:33:54.934Z,12.73
2017-02-27T10:35:06.830Z,12.84
2017-02-27T10:36:18.335Z,12.83
2017-02-27T10:37:29.879Z,12.89
2017-02-27T10:38:41.385Z,12.84
2017-02-27T10:39:53.078Z,12.83
2017-02-27T10:41:04.775Z,12.71
2017-02-27T10:42:16.288Z,12.7
2017-02-27T10:43:27.786Z,12.7
2017-02-27T10:44:39.281Z,12.74
2017-02-27T10:45:50.788Z,12.8
2017-02-27T10:47:02.333Z,12.94
2017-02-27T10:48:13.851Z,12.89
2017-02-27T10:49:25.372Z,12.96
2017-02-27T10:50:36.868Z,12.91
2017-02-27T10:51:48.397Z,12.88
2017-02-27T10:52:59.895Z,12.81
2017-02-27T10:54:11.396Z,12.86
2017-02-27T10:55:22.898Z,12.98
2017-02-27T10:56:34.821Z,12.91
2017-02-27T10:57:46.560Z,12.8
2017-02-27T10:58:58.076Z,12.92
2017-02-27T11:00:09.572Z,13.01
2017-02-27T11:01:21.081Z,13.03
2017-02-27T11:02:32.602Z,12.99
2017-02-27T11:03:44.127Z,13.01
2017-02-27T11:04:55.850Z,13.01
2017-02-27T11:06:07.365Z,13.06
2017-02-27T11:07:18.849Z,12.89
2017-02-27T11:08:30.414Z,12.92
2017-02-27T11:09:41.911Z,12.81
2017-02-27T11:10:53.617Z,12.89
2017-02-27T11:12:05.117Z,12.83
2017-02-27T11:13:16.619Z,12.86
2017-02-27T11:14:28.171Z,12.74
2017-02-27T11:15:39.881Z,12.81
2017-02-27T11:16:51.393Z,12.84
2017-02-27T11:18:02.913Z,12.86
2017-02-27T11:19:14.421Z,12.86
2017-02-27T11:20:25.945Z,12.76
2017-02-27T11:21:37.458Z,12.69
2017-02-27T11:22:49.000Z,12.61
2017-02-27T11:24:00.504Z,12.62
2017-02-27T11:25:12.056Z,12.58
2017-02-27T11:26:23.562Z,12.59
2017-02-27T11:27:35.321Z,12.61
2017-02-27T11:28:46.842Z,12.61
2017-02-27T11:29:58.548Z,12.58
2017-02-27T11:31:10.047Z,12.63
2017-02-27T11:32:21.568Z,12.51
2017-02-27T11:33:33.471Z,12.55
2017-02-27T11:34:44.970Z,12.55
2017-02-27T11:35:56.729Z,12.58
2017-02-27T11:37:08.434Z,12.56
2017-02-27T11:38:19.934Z,12.56
2017-02-27T11:39:31.668Z,12.61
2017-02-27T11:40:43.196Z,12.58
2017-02-27T11:41:54.703Z,12.63
2017-02-27T11:43:06.212Z,12.61
2017-02-27T11:44:18.118Z,12.58
2017-02-27T11:45:29.659Z,12.58
2017-02-27T11:46:41.203Z,12.61
2017-02-27T11:47:52.896Z,12.56
2017-02-27T11:49:04.644Z,12.51
2017-02-27T11:50:16.157Z,12.56
2017-02-27T11:51:27.694Z,12.56
2017-02-27T11:52:39.226Z,12.53
2017-02-27T11:53:50.729Z,12.59
2017-02-27T11:55:02.229Z,12.52
2017-02-27T11:56:13.750Z,12.61
2017-02-27T11:57:25.249Z,12.55
2017-02-27T11:58:36.742Z,12.62
2017-02-27T11:59:48.251Z,12.61
2017-02-27T12:00:59.981Z,12.55
2017-02-27T12:02:11.483Z,12.62
2017-02-27T12:03:22.978Z,12.59
2017-02-27T12:04:34.503Z,12.59
2017-02-27T12:05:46.026Z,12.62
2017-02-27T12:06:57.727Z,12.65
2017-02-27T12:08:09.280Z,12.59
2017-02-27T12:09:20.778Z,12.59
2017-02-27T12:10:32.299Z,12.61
2017-02-27T12:11:43.800Z,12.61
2017-02-27T12:12:55.300Z,12.59
2017-02-27T12:14:06.838Z,12.63
2017-02-27T12:15:18.353Z,12.61
2017-02-27T12:16:29.861Z,12.62
2017-02-27T12:17:41.371Z,12.58
2017-02-27T12:18:52.947Z,12.59
2017-02-27T12:20:04.458Z,12.59
2017-02-27T12:21:15.973Z,12.59
2017-02-27T12:22:27.470Z,12.66
2017-02-27T12:23:38.977Z,12.7
2017-02-27T12:24:50.506Z,12.69
2017-02-27T12:26:02.207Z,12.55
2017-02-27T12:27:13.711Z,12.56
2017-02-27T12:28:25.227Z,12.69
2017-02-27T12:29:36.783Z,12.7
2017-02-27T12:30:48.307Z,12.73
2017-02-27T12:31:59.825Z,12.63
2017-02-27T12:33:11.336Z,12.76
2017-02-27T12:34:22.839Z,12.77
2017-02-27T12:35:34.560Z,12.81
2017-02-27T12:36:46.283Z,12.7
2017-02-27T12:37:58.393Z,12.74
2017-02-27T12:39:09.907Z,12.77
2017-02-27T12:40:21.456Z,12.65
2017-02-27T12:41:32.965Z,12.77
2017-02-27T12:42:44.485Z,12.73
2017-02-27T12:43:55.982Z,12.86
2017-02-27T12:45:07.488Z,12.77
2017-02-27T12:46:19.002Z,12.83
2017-02-27T12:47:30.530Z,12.83
2017-02-27T12:48:42.038Z,12.84
2017-02-27T12:49:53.549Z,12.81
2017-02-27T12:51:05.053Z,12.81
2017-02-27T12:52:16.824Z,12.89
2017-02-27T12:53:28.328Z,12.92
2017-02-27T12:54:39.833Z,12.98
2017-02-27T12:55:51.350Z,12.91
2017-02-27T12:57:02.835Z,12.89
2017-02-27T12:58:14.351Z,12.89
2017-02-27T12:59:26.057Z,12.98
2017-02-27T13:00:37.754Z,12.92
2017-02-27T13:01:49.529Z,12.89
2017-02-27T13:03:01.031Z,12.81
2017-02-27T13:04:12.540Z,12.94
2017-02-27T13:05:24.253Z,12.98
2017-02-27T13:06:35.750Z,13.06
2017-02-27T13:07:47.273Z,13.02
2017-02-27T13:08:58.780Z,13.1
2017-02-27T13:10:10.300Z,13.07
2017-02-27T13:11:22.219Z,13.02
2017-02-27T13:12:33.809Z,12.95
2017-02-27T13:13:45.330Z,12.98
2017-02-27T13:14:56.849Z,12.89
2017-02-27T13:16:08.361Z,12.8
2017-02-27T13:17:19.890Z,12.91
2017-02-27T13:18:31.593Z,12.92
2017-02-27T13:19:43.308Z,12.92
2017-02-27T13:20:54.829Z,12.96
2017-02-27T13:22:06.351Z,12.94
2017-02-27T13:23:17.923Z,12.86
2017-02-27T13:24:29.434Z,12.88
2017-02-27T13:25:41.116Z,12.88
2017-02-27T13:26:52.640Z,12.91
2017-02-27T13:28:04.184Z,12.91
2017-02-27T13:29:15.704Z,12.89
2017-02-27T13:30:27.237Z,12.88
2017-02-27T13:31:38.960Z,12.89
2017-02-27T13:32:50.458Z,12.94
2017-02-27T13:34:01.990Z,12.92
2017-02-27T13:35:13.495Z,12.91
2017-02-27T13:36:25.203Z,12.88
2017-02-27T13:37:36.717Z,12.92
2017-02-27T13:38:48.205Z,12.88
2017-02-27T13:39:59.961Z,12.77
2017-02-27T13:41:11.449Z,12.73
2017-02-27T13:42:22.950Z,12.84
2017-02-27T13:43:34.679Z,12.78
2017-02-27T13:44:46.179Z,12.76
2017-02-27T13:45:57.692Z,12.7
2017-02-27T13:47:09.211Z,12.69
2017-02-27T13:48:20.707Z,12.74
2017-02-27T13:49:32.267Z,12.81
2017-02-27T13:50:43.843Z,12.88
2017-02-27T13:51:55.551Z,12.7
2017-02-27T13:53:07.260Z,12.78
2017-02-27T13:54:18.759Z,12.73
2017-02-27T13:55:30.245Z,12.84
2017-02-27T13:56:41.782Z,12.7
2017-02-27T13:57:53.295Z,12.73
2017-02-27T13:59:04.809Z,12.8
2017-02-27T14:00:16.340Z,12.73
2017-02-27T14:01:27.893Z,12.77
2017-02-27T14:02:39.394Z,12.73
2017-02-27T14:03:51.306Z,12.71
2017-02-27T14:05:02.830Z,12.69
2017-02-27T14:06:14.340Z,12.7
2017-02-27T14:07:25.891Z,12.59
2017-02-27T14:08:37.401Z,12.61
2017-02-27T14:09:49.100Z,12.63
2017-02-27T14:11:00.608Z,12.55
2017-02-27T14:12:12.325Z,12.56
2017-02-27T14:13:24.059Z,12.58
2017-02-27T14:14:35.789Z,12.61
2017-02-27T14:15:47.313Z,12.61
2017-02-27T14:16:58.822Z,12.59
2017-02-27T14:18:10.333Z,12.58
2017-02-27T14:19:22.251Z,12.59
2017-02-27T14:20:33.801Z,12.59
2017-02-27T14:21:45.339Z,12.52
2017-02-27T14:22:56.904Z,12.53
2017-02-27T14:24:08.405Z,12.52
2017-02-27T14:25:19.926Z,12.58
2017-02-27T14:26:31.431Z,12.55
2017-02-27T14:27:43.165Z,12.55
2017-02-27T14:28:54.679Z,12.58
2017-02-27T14:30:06.184Z,12.52
2017-02-27T14:31:17.714Z,12.53
2017-02-27T14:32:29.197Z,12.45
2017-02-27T14:33:40.764Z,12.53
2017-02-27T14:34:52.273Z,12.55
2017-02-27T14:36:03.762Z,12.58
2017-02-27T14:37:15.459Z,12.58
2017-02-27T14:38:27.004Z,12.56
2017-02-27T14:39:38.509Z,12.59
2017-02-27T14:40:50.004Z,12.61
2017-02-27T14:42:01.543Z,12.59
2017-02-27T14:43:13.040Z,12.58
2017-02-27T14:44:24.617Z,12.55
2017-02-27T14:45:36.351Z,12.61
2017-02-27T14:46:47.857Z,12.62
2017-02-27T14:47:59.363Z,12.69
2017-02-27T14:49:10.880Z,12.58
2017-02-27T14:50:22.399Z,12.62
2017-02-27T14:51:33.889Z,12.69
2017-02-27T14:52:45.406Z,12.7
2017-02-27T14:53:56.903Z,12.69
2017-02-27T14:55:08.404Z,12.73
2017-02-27T14:56:19.893Z,12.71
2017-02-27T14:57:31.389Z,12.59
2017-02-27T14:58:43.125Z,12.58
2017-02-27T14:59:54.627Z,12.59
2017-02-27T15:01:06.157Z,12.59
2017-02-27T15:02:17.673Z,12.55
2017-02-27T15:03:29.189Z,12.58
2017-02-27T15:04:40.696Z,12.56
2017-02-27T15:05:52.270Z,12.7
2017-02-27T15:07:03.770Z,12.76
2017-02-27T15:08:15.297Z,12.71
2017-02-27T15:09:27.001Z,12.77
2017-02-27T15:10:38.529Z,12.94
2017-02-27T15:11:50.028Z,12.92
2017-02-27T15:13:01.536Z,12.92
2017-02-27T15:14:13.044Z,12.84
2017-02-27T15:15:24.524Z,12.81
2017-02-27T15:16:36.085Z,12.81
2017-02-27T15:17:47.593Z,12.78
2017-02-27T15:18:59.093Z,12.74
2017-02-27T15:20:10.590Z,12.65
2017-02-27T15:21:22.135Z,12.63
2017-02-27T15:22:33.636Z,12.7
2017-02-27T15:23:45.139Z,12.69
2017-02-27T15:24:56.646Z,12.73
2017-02-27T15:26:08.136Z,12.65
2017-02-27T15:27:19.674Z,12.77
2017-02-27T15:28:31.155Z,12.65
2017-02-27T15:29:42.661Z,12.84
2017-02-27T15:30:54.354Z,12.8
2017-02-27T15:32:05.851Z,12.91
2017-02-27T15:33:17.367Z,12.92
2017-02-27T15:34:29.073Z,12.92
2017-02-27T15:35:40.567Z,12.89
2017-02-27T15:36:52.085Z,12.83
2017-02-27T15:38:03.652Z,12.81